sensor_id;sensor_type;location;lat;lon;timestamp;pressure;altitude;pressure_sealevel;temperature;humidity
25855;BME280;13680;49.936;11.344;2023-02-12T00:00:46;98553.66;;;5.13;84.42
25855;BME280;13680;49.936;11.344;2023-02-12T00:03:12;98549.25;;;5.00;84.92
25855;BME280;13680;49.936;11.344;2023-02-12T00:05:38;98558.97;;;5.13;85.11
25855;BME280;13680;49.936;11.344;2023-02-12T00:08:03;98554.53;;;5.06;85.22
25855;BME280;13680;49.936;11.344;2023-02-12T00:10:29;98552.53;;;5.02;84.85
25855;BME280;13680;49.936;11.344;2023-02-12T00:12:54;98548.84;;;5.03;84.69
25855;BME280;13680;49.936;11.344;2023-02-12T00:15:20;98553.16;;;4.97;84.24
25855;BME280;13680;49.936;11.344;2023-02-12T00:17:45;98543.97;;;4.93;84.32
25855;BME280;13680;49.936;11.344;2023-02-12T00:20:11;98548.88;;;4.96;83.85
25855;BME280;13680;49.936;11.344;2023-02-12T00:22:36;98548.88;;;4.96;84.19
25855;BME280;13680;49.936;11.344;2023-02-12T00:25:02;98548.28;;;4.94;84.46
25855;BME280;13680;49.936;11.344;2023-02-12T00:27:32;98555.84;;;4.97;84.83
25855;BME280;13680;49.936;11.344;2023-02-12T00:29:57;98553.41;;;4.96;85.11
25855;BME280;13680;49.936;11.344;2023-02-12T00:32:23;98552.94;;;4.99;84.98
25855;BME280;13680;49.936;11.344;2023-02-12T00:34:48;98550.78;;;4.89;85.41
25855;BME280;13680;49.936;11.344;2023-02-12T00:37:13;98553.16;;;4.97;85.54
25855;BME280;13680;49.936;11.344;2023-02-12T00:39:39;98554.34;;;5.01;84.87
25855;BME280;13680;49.936;11.344;2023-02-12T00:42:05;98549.69;;;4.97;84.75
25855;BME280;13680;49.936;11.344;2023-02-12T00:44:30;98554.19;;;4.96;84.82
25855;BME280;13680;49.936;11.344;2023-02-12T00:46:55;98549.97;;;4.88;85.05
25855;BME280;13680;49.936;11.344;2023-02-12T00:49:28;98554.03;;;4.91;84.62
25855;BME280;13680;49.936;11.344;2023-02-12T00:51:53;98547.25;;;4.95;84.19
25855;BME280;13680;49.936;11.344;2023-02-12T00:54:19;98549.25;;;5.00;84.16
25855;BME280;13680;49.936;11.344;2023-02-12T00:56:44;98551.53;;;4.96;84.16
25855;BME280;13680;49.936;11.344;2023-02-12T00:59:09;98553.63;;;4.94;84.16
25855;BME280;13680;49.936;11.344;2023-02-12T01:01:34;98546.66;;;4.93;84.39
25855;BME280;13680;49.936;11.344;2023-02-12T01:04:00;98550.56;;;4.90;84.31
25855;BME280;13680;49.936;11.344;2023-02-12T01:06:25;98552.84;;;4.87;85.01
25855;BME280;13680;49.936;11.344;2023-02-12T01:08:51;98551.44;;;4.84;84.72
25855;BME280;13680;49.936;11.344;2023-02-12T01:11:17;98553.47;;;4.89;84.58
25855;BME280;13680;49.936;11.344;2023-02-12T01:13:43;98555.63;;;4.73;84.54
25855;BME280;13680;49.936;11.344;2023-02-12T01:16:20;98552.25;;;4.85;84.83
25855;BME280;13680;49.936;11.344;2023-02-12T01:18:46;98547.09;;;4.90;84.55
25855;BME280;13680;49.936;11.344;2023-02-12T01:21:14;98553.13;;;4.79;84.91
25855;BME280;13680;49.936;11.344;2023-02-12T01:23:40;98544.28;;;4.85;84.40
25855;BME280;13680;49.936;11.344;2023-02-12T01:26:05;98546.94;;;4.85;84.67
25855;BME280;13680;49.936;11.344;2023-02-12T01:28:32;98559.66;;;4.83;84.65
25855;BME280;13680;49.936;11.344;2023-02-12T01:30:58;98552.25;;;4.85;84.56
25855;BME280;13680;49.936;11.344;2023-02-12T01:33:23;98551.44;;;4.84;84.72
25855;BME280;13680;49.936;11.344;2023-02-12T01:35:48;98558.84;;;4.82;85.15
25855;BME280;13680;49.936;11.344;2023-02-12T01:38:13;98564.94;;;4.89;84.71
25855;BME280;13680;49.936;11.344;2023-02-12T01:40:39;98557.16;;;4.88;84.65
25855;BME280;13680;49.936;11.344;2023-02-12T01:43:05;98554.09;;;4.84;84.71
25855;BME280;13680;49.936;11.344;2023-02-12T01:45:47;98554.88;;;4.91;84.35
25855;BME280;13680;49.936;11.344;2023-02-12T01:48:14;98547.56;;;4.80;84.99
25855;BME280;13680;49.936;11.344;2023-02-12T01:50:43;98547.75;;;4.85;84.97
25855;BME280;13680;49.936;11.344;2023-02-12T01:53:09;98538.75;;;4.80;85.65
25855;BME280;13680;49.936;11.344;2023-02-12T01:55:34;98546.03;;;4.91;85.33
25855;BME280;13680;49.936;11.344;2023-02-12T01:57:59;98543.59;;;4.89;85.00
25855;BME280;13680;49.936;11.344;2023-02-12T02:00:25;98561.50;;;4.82;84.85
25855;BME280;13680;49.936;11.344;2023-02-12T02:02:56;98564.59;;;4.79;84.75
25855;BME280;13680;49.936;11.344;2023-02-12T02:05:30;98568.06;;;4.80;84.85
25855;BME280;13680;49.936;11.344;2023-02-12T02:07:59;98566.41;;;4.85;84.86
25855;BME280;13680;49.936;11.344;2023-02-12T02:10:24;98563.50;;;4.87;84.75
25855;BME280;13680;49.936;11.344;2023-02-12T02:12:50;98573.59;;;4.85;84.75
25855;BME280;13680;49.936;11.344;2023-02-12T02:15:40;98568.03;;;4.86;84.38
25855;BME280;13680;49.936;11.344;2023-02-12T02:18:20;98564.13;;;4.89;84.59
25855;BME280;13680;49.936;11.344;2023-02-12T02:31:40;98564.44;;;4.99;84.64
25855;BME280;13680;49.936;11.344;2023-02-12T02:39:37;98565.41;;;5.05;84.92
25855;BME280;13680;49.936;11.344;2023-02-12T02:42:28;98564.38;;;5.06;85.24
25855;BME280;13680;49.936;11.344;2023-02-12T02:47:32;98554.53;;;5.06;84.74
25855;BME280;13680;49.936;11.344;2023-02-12T02:50:13;98553.50;;;5.07;84.54
25855;BME280;13680;49.936;11.344;2023-02-12T02:52:49;98563.56;;;5.05;84.48
25855;BME280;13680;49.936;11.344;2023-02-12T02:55:18;98562.00;;;4.98;84.74
25855;BME280;13680;49.936;11.344;2023-02-12T02:57:53;98567.75;;;4.95;84.39
25855;BME280;13680;49.936;11.344;2023-02-12T03:00:34;98569.00;;;4.92;84.70
25855;BME280;13680;49.936;11.344;2023-02-12T03:03:08;98565.69;;;4.97;84.63
25855;BME280;13680;49.936;11.344;2023-02-12T03:05:39;98568.94;;;4.99;84.36
25855;BME280;13680;49.936;11.344;2023-02-12T03:08:11;98571.56;;;5.05;84.61
25855;BME280;13680;49.936;11.344;2023-02-12T03:10:44;98574.28;;;4.99;84.23
25855;BME280;13680;49.936;11.344;2023-02-12T03:13:31;98577.31;;;5.02;84.08
25855;BME280;13680;49.936;11.344;2023-02-12T03:16:02;98577.56;;;5.01;84.42
25855;BME280;13680;49.936;11.344;2023-02-12T03:18:32;98572.00;;;5.02;84.53
25855;BME280;13680;49.936;11.344;2023-02-12T03:21:01;98586.09;;;5.10;84.31
25855;BME280;13680;49.936;11.344;2023-02-12T03:23:37;98581.63;;;5.03;84.03
25855;BME280;13680;49.936;11.344;2023-02-12T03:26:07;98581.63;;;5.03;83.91
25855;BME280;13680;49.936;11.344;2023-02-12T03:28:35;98584.75;;;5.00;84.38
25855;BME280;13680;49.936;11.344;2023-02-12T03:33:51;98585.94;;;5.04;84.15
25855;BME280;13680;49.936;11.344;2023-02-12T03:36:32;98591.03;;;5.06;84.37
25855;BME280;13680;49.936;11.344;2023-02-12T03:39:08;98587.56;;;5.05;84.23
25855;BME280;13680;49.936;11.344;2023-02-12T03:41:47;98587.56;;;5.05;84.39
25855;BME280;13680;49.936;11.344;2023-02-12T03:44:28;98585.72;;;5.06;84.50
25855;BME280;13680;49.936;11.344;2023-02-12T03:47:15;98585.56;;;5.01;84.49
25855;BME280;13680;49.936;11.344;2023-02-12T03:49:51;98593.16;;;4.97;84.16
25855;BME280;13680;49.936;11.344;2023-02-12T03:52:17;98596.66;;;4.98;84.21
25855;BME280;13680;49.936;11.344;2023-02-12T03:54:43;98589.63;;;5.03;84.21
25855;BME280;13680;49.936;11.344;2023-02-12T03:57:12;98594.75;;;5.05;84.23
25855;BME280;13680;49.936;11.344;2023-02-12T03:59:38;98596.16;;;5.07;83.96
25855;BME280;13680;49.936;11.344;2023-02-12T04:02:06;98591.28;;;5.04;84.20
25855;BME280;13680;49.936;11.344;2023-02-12T04:04:32;98590.25;;;5.05;84.55
25855;BME280;13680;49.936;11.344;2023-02-12T04:06:58;98595.97;;;5.09;84.04
25855;BME280;13680;49.936;11.344;2023-02-12T04:09:25;98605.56;;;5.10;84.26
25855;BME280;13680;49.936;11.344;2023-02-12T04:17:31;98604.75;;;5.10;84.42
25855;BME280;13680;49.936;11.344;2023-02-12T04:20:11;98603.72;;;5.11;84.24
25855;BME280;13680;49.936;11.344;2023-02-12T04:23:41;98610.72;;;5.12;84.50
25855;BME280;13680;49.936;11.344;2023-02-12T04:31:29;98606.97;;;5.13;84.67
25855;BME280;13680;49.936;11.344;2023-02-12T04:34:07;98616.41;;;5.15;84.56
25855;BME280;13680;49.936;11.344;2023-02-12T04:36:55;98624.63;;;5.14;84.49
25855;BME280;13680;49.936;11.344;2023-02-12T04:39:26;98623.38;;;5.16;84.43
25855;BME280;13680;49.936;11.344;2023-02-12T04:41:53;98621.72;;;5.15;84.57
25855;BME280;13680;49.936;11.344;2023-02-12T04:44:27;98618.88;;;5.17;84.57
25855;BME280;13680;49.936;11.344;2023-02-12T04:46:53;98619.44;;;5.19;84.40
25855;BME280;13680;49.936;11.344;2023-02-12T04:49:20;98621.91;;;5.20;84.06
25855;BME280;13680;49.936;11.344;2023-02-12T04:51:46;98622.56;;;5.16;84.26
25855;BME280;13680;49.936;11.344;2023-02-12T04:54:13;98630.56;;;5.16;84.49
25855;BME280;13680;49.936;11.344;2023-02-12T04:56:39;98623.44;;;5.10;84.80
25855;BME280;13680;49.936;11.344;2023-02-12T04:59:05;98634.50;;;5.13;84.65
25855;BME280;13680;49.936;11.344;2023-02-12T05:01:33;98630.56;;;5.16;84.69
25855;BME280;13680;49.936;11.344;2023-02-12T05:03:59;98633.41;;;5.21;84.47
25855;BME280;13680;49.936;11.344;2023-02-12T05:06:24;98636.47;;;5.18;84.52
25855;BME280;13680;49.936;11.344;2023-02-12T05:08:52;98638.63;;;5.09;84.37
25855;BME280;13680;49.936;11.344;2023-02-12T05:11:17;98642.31;;;5.08;84.52
25855;BME280;13680;49.936;11.344;2023-02-12T05:13:42;98644.81;;;5.03;84.44
25855;BME280;13680;49.936;11.344;2023-02-12T05:16:08;98652.16;;;5.07;84.23
25855;BME280;13680;49.936;11.344;2023-02-12T05:18:34;98649.47;;;5.07;84.35
25855;BME280;13680;49.936;11.344;2023-02-12T05:21:01;98649.28;;;5.09;84.16
25855;BME280;13680;49.936;11.344;2023-02-12T05:23:28;98644.38;;;5.06;84.10
25855;BME280;13680;49.936;11.344;2023-02-12T05:25:57;98649.75;;;4.99;84.49
25855;BME280;13680;49.936;11.344;2023-02-12T05:28:22;98651.81;;;4.97;84.33
25855;BME280;13680;49.936;11.344;2023-02-12T05:30:48;98651.75;;;5.04;84.33
25855;BME280;13680;49.936;11.344;2023-02-12T05:33:13;98645.78;;;5.08;84.02
25855;BME280;13680;49.936;11.344;2023-02-12T05:35:38;98656.50;;;5.02;84.38
25855;BME280;13680;49.936;11.344;2023-02-12T05:38:04;98654.72;;;4.96;84.40
25855;BME280;13680;49.936;11.344;2023-02-12T05:40:29;98669.06;;;4.95;85.04
25855;BME280;13680;49.936;11.344;2023-02-12T05:42:54;98671.09;;;4.99;84.89
25855;BME280;13680;49.936;11.344;2023-02-12T05:45:19;98659.59;;;4.99;84.79
25855;BME280;13680;49.936;11.344;2023-02-12T05:47:45;98664.13;;;4.98;84.66
25855;BME280;13680;49.936;11.344;2023-02-12T05:50:10;98664.13;;;4.98;84.66
25855;BME280;13680;49.936;11.344;2023-02-12T05:52:36;98672.72;;;5.00;84.63
25855;BME280;13680;49.936;11.344;2023-02-12T05:55:01;98671.88;;;5.06;84.43
25855;BME280;13680;49.936;11.344;2023-02-12T05:57:27;98675.19;;;5.02;84.11
25855;BME280;13680;49.936;11.344;2023-02-12T05:59:52;98671.91;;;5.00;84.55
25855;BME280;13680;49.936;11.344;2023-02-12T06:02:17;98669.00;;;5.01;84.26
25855;BME280;13680;49.936;11.344;2023-02-12T06:04:43;98671.50;;;5.03;84.56
25855;BME280;13680;49.936;11.344;2023-02-12T06:07:08;98670.44;;;5.04;84.58
25855;BME280;13680;49.936;11.344;2023-02-12T06:09:34;98672.28;;;5.03;84.45
25855;BME280;13680;49.936;11.344;2023-02-12T06:12:00;98673.59;;;4.94;84.65
25855;BME280;13680;49.936;11.344;2023-02-12T06:14:25;98670.31;;;4.92;84.74
25855;BME280;13680;49.936;11.344;2023-02-12T06:16:51;98676.50;;;4.86;85.25
25855;BME280;13680;49.936;11.344;2023-02-12T06:19:17;98667.06;;;4.90;85.35
25855;BME280;13680;49.936;11.344;2023-02-12T06:21:43;98678.09;;;4.94;84.89
25855;BME280;13680;49.936;11.344;2023-02-12T06:24:11;98680.97;;;4.92;84.72
25855;BME280;13680;49.936;11.344;2023-02-12T06:26:36;98682.84;;;4.91;84.67
25855;BME280;13680;49.936;11.344;2023-02-12T06:29:01;98692.84;;;4.96;84.57
25855;BME280;13680;49.936;11.344;2023-02-12T06:31:29;98689.75;;;4.99;84.43
25855;BME280;13680;49.936;11.344;2023-02-12T06:33:57;98686.47;;;4.97;84.65
25855;BME280;13680;49.936;11.344;2023-02-12T06:36:23;98694.97;;;4.87;84.98
25855;BME280;13680;49.936;11.344;2023-02-12T06:38:49;98690.03;;;4.84;85.74
25855;BME280;13680;49.936;11.344;2023-02-12T06:41:15;98696.56;;;4.95;85.10
25855;BME280;13680;49.936;11.344;2023-02-12T06:43:41;98691.22;;;4.95;85.13
25855;BME280;13680;49.936;11.344;2023-02-12T06:46:07;98702.31;;;4.92;85.38
25855;BME280;13680;49.936;11.344;2023-02-12T06:48:33;98710.47;;;4.97;84.93
25855;BME280;13680;49.936;11.344;2023-02-12T06:51:07;98705.97;;;4.98;85.16
25855;BME280;13680;49.936;11.344;2023-02-12T06:53:33;98707.63;;;4.92;85.04
25855;BME280;13680;49.936;11.344;2023-02-12T06:56:07;98709.28;;;4.93;85.35
25855;BME280;13680;49.936;11.344;2023-02-12T06:58:36;98722.78;;;4.98;85.24
25855;BME280;13680;49.936;11.344;2023-02-12T07:03:40;98715.97;;;5.02;85.25
25855;BME280;13680;49.936;11.344;2023-02-12T07:06:06;98714.97;;;5.03;85.17
25855;BME280;13680;49.936;11.344;2023-02-12T07:08:32;98723.59;;;4.99;84.87
25855;BME280;13680;49.936;11.344;2023-02-12T07:10:57;98722.97;;;5.03;85.12
25855;BME280;13680;49.936;11.344;2023-02-12T07:13:22;98725.22;;;5.06;85.38
25855;BME280;13680;49.936;11.344;2023-02-12T07:15:48;98725.38;;;5.12;85.33
25855;BME280;13680;49.936;11.344;2023-02-12T07:18:13;98729.25;;;5.16;84.96
25855;BME280;13680;49.936;11.344;2023-02-12T07:20:38;98725.75;;;5.15;84.98
25855;BME280;13680;49.936;11.344;2023-02-12T07:23:04;98728.81;;;5.19;85.45
25855;BME280;13680;49.936;11.344;2023-02-12T07:25:29;98730.84;;;5.23;85.38
25855;BME280;13680;49.936;11.344;2023-02-12T07:27:54;98730.00;;;5.23;85.62
25855;BME280;13680;49.936;11.344;2023-02-12T07:30:20;98735.31;;;5.30;85.39
25855;BME280;13680;49.936;11.344;2023-02-12T07:32:45;98737.53;;;5.33;85.21
25855;BME280;13680;49.936;11.344;2023-02-12T07:35:11;98736.91;;;5.37;85.04
25855;BME280;13680;49.936;11.344;2023-02-12T07:37:36;98740.16;;;5.39;85.13
25855;BME280;13680;49.936;11.344;2023-02-12T07:40:02;98738.09;;;5.41;85.33
25855;BME280;13680;49.936;11.344;2023-02-12T07:42:27;98748.31;;;5.45;85.56
25855;BME280;13680;49.936;11.344;2023-02-12T07:44:54;98746.88;;;5.49;85.18
25855;BME280;13680;49.936;11.344;2023-02-12T07:47:20;98745.81;;;5.50;85.10
25855;BME280;13680;49.936;11.344;2023-02-12T07:49:45;98743.75;;;5.52;85.16
25855;BME280;13680;49.936;11.344;2023-02-12T07:52:10;98751.94;;;5.57;85.24
25855;BME280;13680;49.936;11.344;2023-02-12T07:54:36;98750.91;;;5.58;85.33
25855;BME280;13680;49.936;11.344;2023-02-12T07:57:01;98750.03;;;5.64;85.23
25855;BME280;13680;49.936;11.344;2023-02-12T07:59:27;98745.28;;;5.66;85.48
25855;BME280;13680;49.936;11.344;2023-02-12T08:01:52;98747.75;;;5.68;85.55
25855;BME280;13680;49.936;11.344;2023-02-12T08:04:20;98752.66;;;5.71;85.12
25855;BME280;13680;49.936;11.344;2023-02-12T08:06:48;98742.97;;;5.77;85.08
25855;BME280;13680;49.936;11.344;2023-02-12T08:09:20;98746.59;;;5.82;84.64
25855;BME280;13680;49.936;11.344;2023-02-12T08:11:45;98750.75;;;5.78;84.88
25855;BME280;13680;49.936;11.344;2023-02-12T08:14:12;98748.88;;;5.79;84.99
25855;BME280;13680;49.936;11.344;2023-02-12T08:16:39;98747.94;;;5.92;84.61
25855;BME280;13680;49.936;11.344;2023-02-12T08:19:05;98743.28;;;5.87;84.83
25855;BME280;13680;49.936;11.344;2023-02-12T08:21:31;98754.16;;;5.85;85.11
25855;BME280;13680;49.936;11.344;2023-02-12T08:23:57;98754.16;;;5.85;85.39
25855;BME280;13680;49.936;11.344;2023-02-12T08:28:55;98757.97;;;5.96;85.36
25855;BME280;13680;49.936;11.344;2023-02-12T08:31:25;98755.28;;;6.03;85.48
25855;BME280;13680;49.936;11.344;2023-02-12T08:33:53;98755.88;;;6.05;85.55
25855;BME280;13680;49.936;11.344;2023-02-12T08:36:24;98760.63;;;6.03;85.37
25855;BME280;13680;49.936;11.344;2023-02-12T08:38:50;98754.31;;;6.16;85.46
25855;BME280;13680;49.936;11.344;2023-02-12T08:41:21;98758.03;;;6.15;85.62
25855;BME280;13680;49.936;11.344;2023-02-12T08:43:46;98757.22;;;6.14;85.67
25855;BME280;13680;49.936;11.344;2023-02-12T08:46:16;98759.16;;;6.26;85.48
25855;BME280;13680;49.936;11.344;2023-02-12T08:48:42;98756.56;;;6.37;85.24
25855;BME280;13680;49.936;11.344;2023-02-12T08:51:16;98745.38;;;6.47;85.04
25855;BME280;13680;49.936;11.344;2023-02-12T08:53:45;98754.34;;;6.53;85.04
25855;BME280;13680;49.936;11.344;2023-02-12T08:56:13;98750.47;;;6.67;84.66
25855;BME280;13680;49.936;11.344;2023-02-12T08:58:39;98758.56;;;6.61;84.89
25855;BME280;13680;49.936;11.344;2023-02-12T09:01:11;98767.56;;;6.66;85.16
25855;BME280;13680;49.936;11.344;2023-02-12T09:03:37;98761.47;;;6.78;84.95
25855;BME280;13680;49.936;11.344;2023-02-12T09:06:03;98768.94;;;6.87;84.46
25855;BME280;13680;49.936;11.344;2023-02-12T09:08:29;98768.25;;;6.92;83.99
25855;BME280;13680;49.936;11.344;2023-02-12T09:10:55;98767.38;;;6.98;84.19
25855;BME280;13680;49.936;11.344;2023-02-12T09:13:20;98761.22;;;6.98;84.29
25855;BME280;13680;49.936;11.344;2023-02-12T09:15:46;98761.41;;;6.96;84.62
25855;BME280;13680;49.936;11.344;2023-02-12T09:18:12;98750.84;;;7.01;84.70
25855;BME280;13680;49.936;11.344;2023-02-12T09:20:41;98755.66;;;7.11;84.53
25855;BME280;13680;49.936;11.344;2023-02-12T09:23:09;98756.59;;;7.17;84.35
25855;BME280;13680;49.936;11.344;2023-02-12T09:25:38;98763.59;;;7.18;84.53
25855;BME280;13680;49.936;11.344;2023-02-12T09:28:04;98754.28;;;7.20;84.77
25855;BME280;13680;49.936;11.344;2023-02-12T09:30:29;98761.00;;;7.42;84.48
25855;BME280;13680;49.936;11.344;2023-02-12T09:32:54;98756.63;;;7.59;84.05
25855;BME280;13680;49.936;11.344;2023-02-12T09:35:20;98767.09;;;7.73;83.91
25855;BME280;13680;49.936;11.344;2023-02-12T09:37:46;98769.91;;;7.66;84.03
25855;BME280;13680;49.936;11.344;2023-02-12T09:40:32;98770.50;;;7.80;83.37
25855;BME280;13680;49.936;11.344;2023-02-12T09:43:22;98774.47;;;8.01;83.68
25855;BME280;13680;49.936;11.344;2023-02-12T09:46:04;98774.13;;;7.97;83.52
25855;BME280;13680;49.936;11.344;2023-02-12T09:48:47;98774.22;;;8.26;81.98
25855;BME280;13680;49.936;11.344;2023-02-12T09:51:15;98774.00;;;8.16;82.19
25855;BME280;13680;49.936;11.344;2023-02-12T09:53:44;98771.69;;;8.19;81.69
25855;BME280;13680;49.936;11.344;2023-02-12T09:56:16;98773.78;;;8.29;81.84
25855;BME280;13680;49.936;11.344;2023-02-12T09:58:51;98773.53;;;8.66;80.68
25855;BME280;13680;49.936;11.344;2023-02-12T10:01:20;98771.03;;;8.77;79.69
25855;BME280;13680;49.936;11.344;2023-02-12T10:03:48;98769.63;;;8.86;79.16
25855;BME280;13680;49.936;11.344;2023-02-12T10:06:35;98765.88;;;8.87;79.44
25855;BME280;13680;49.936;11.344;2023-02-12T10:11:48;98768.25;;;9.12;79.10
25855;BME280;13680;49.936;11.344;2023-02-12T10:17:17;98766.16;;;9.31;77.76
25855;BME280;13680;49.936;11.344;2023-02-12T10:22:41;98768.38;;;9.34;77.70
25855;BME280;13680;49.936;11.344;2023-02-12T10:25:23;98767.56;;;9.34;77.05
25855;BME280;13680;49.936;11.344;2023-02-12T10:27:56;98768.13;;;9.36;76.93
25855;BME280;13680;49.936;11.344;2023-02-12T10:30:30;98770.53;;;9.21;76.69
25855;BME280;13680;49.936;11.344;2023-02-12T10:33:03;98766.94;;;9.15;76.50
25855;BME280;13680;49.936;11.344;2023-02-12T10:35:32;98772.78;;;9.12;77.56
25855;BME280;13680;49.936;11.344;2023-02-12T10:38:13;98764.34;;;9.20;77.19
25855;BME280;13680;49.936;11.344;2023-02-12T10:40:43;98759.63;;;9.27;77.51
25855;BME280;13680;49.936;11.344;2023-02-12T10:43:09;98770.09;;;9.41;76.64
25855;BME280;13680;49.936;11.344;2023-02-12T10:45:38;98776.56;;;9.28;76.85
25855;BME280;13680;49.936;11.344;2023-02-12T10:48:22;98772.16;;;8.93;78.09
25855;BME280;13680;49.936;11.344;2023-02-12T10:53:39;98768.38;;;9.06;76.80
25855;BME280;13680;49.936;11.344;2023-02-12T10:58:36;98769.44;;;9.05;78.27
25855;BME280;13680;49.936;11.344;2023-02-12T11:01:03;98772.59;;;9.01;77.21
25855;BME280;13680;49.936;11.344;2023-02-12T11:03:31;98761.94;;;9.07;77.43
25855;BME280;13680;49.936;11.344;2023-02-12T11:06:20;98771.78;;;9.01;78.17
25855;BME280;13680;49.936;11.344;2023-02-12T11:08:46;98768.06;;;9.02;77.27
25855;BME280;13680;49.936;11.344;2023-02-12T11:11:21;98769.25;;;8.94;78.62
25855;BME280;13680;49.936;11.344;2023-02-12T11:13:59;98763.09;;;9.11;78.18
25855;BME280;13680;49.936;11.344;2023-02-12T11:16:29;98759.56;;;8.93;77.45
25855;BME280;13680;49.936;11.344;2023-02-12T11:19:03;98761.38;;;8.76;78.67
25855;BME280;13680;49.936;11.344;2023-02-12T11:21:29;98763.59;;;9.08;77.39
25855;BME280;13680;49.936;11.344;2023-02-12T11:23:55;98767.41;;;9.12;78.07
25855;BME280;13680;49.936;11.344;2023-02-12T11:26:26;98755.72;;;9.18;77.24
25855;BME280;13680;49.936;11.344;2023-02-12T11:31:30;98763.41;;;9.26;77.23
25855;BME280;13680;49.936;11.344;2023-02-12T11:34:22;98765.50;;;9.24;77.15
25855;BME280;13680;49.936;11.344;2023-02-12T11:36:50;98754.72;;;9.07;78.15
25855;BME280;13680;49.936;11.344;2023-02-12T11:39:28;98754.41;;;9.21;77.43
25855;BME280;13680;49.936;11.344;2023-02-12T11:42:05;98753.78;;;9.13;77.26
25855;BME280;13680;49.936;11.344;2023-02-12T11:44:42;98752.25;;;9.06;77.98
25855;BME280;13680;49.936;11.344;2023-02-12T11:47:16;98749.38;;;9.24;77.34
25855;BME280;13680;49.936;11.344;2023-02-12T11:52:25;98741.41;;;9.12;77.35
25855;BME280;13680;49.936;11.344;2023-02-12T11:54:58;98746.53;;;9.14;77.19
25855;BME280;13680;49.936;11.344;2023-02-12T12:00:00;98740.94;;;9.32;76.53
25855;BME280;13680;49.936;11.344;2023-02-12T12:02:31;98750.06;;;9.31;76.07
25855;BME280;13680;49.936;11.344;2023-02-12T12:05:13;98734.41;;;9.28;76.55
25855;BME280;13680;49.936;11.344;2023-02-12T12:07:43;98740.38;;;9.30;76.26
25855;BME280;13680;49.936;11.344;2023-02-12T12:10:19;98735.75;;;9.43;76.08
25855;BME280;13680;49.936;11.344;2023-02-12T12:15:37;98734.53;;;9.50;75.17
25855;BME280;13680;49.936;11.344;2023-02-12T12:18:41;98738.34;;;9.38;75.88
25855;BME280;13680;49.936;11.344;2023-02-12T12:21:44;98742.56;;;9.33;76.09
25855;BME280;13680;49.936;11.344;2023-02-12T12:27:02;98745.13;;;9.57;74.97
25855;BME280;13680;49.936;11.344;2023-02-12T12:29:43;98742.09;;;9.54;74.48
25855;BME280;13680;49.936;11.344;2023-02-12T12:32:12;98741.78;;;9.50;75.24
25855;BME280;13680;49.936;11.344;2023-02-12T12:34:40;98744.22;;;9.52;75.36
25855;BME280;13680;49.936;11.344;2023-02-12T12:53:15;98750.34;;;9.18;77.60
25855;BME280;13680;49.936;11.344;2023-02-12T12:55:49;98743.03;;;9.13;78.01
25855;BME280;13680;49.936;11.344;2023-02-12T13:03:41;98745.41;;;8.98;78.66
25855;BME280;13680;49.936;11.344;2023-02-12T13:11:27;98747.03;;;8.99;79.04
25855;BME280;13680;49.936;11.344;2023-02-12T13:14:33;98747.28;;;8.97;78.89
25855;BME280;13680;49.936;11.344;2023-02-12T13:17:13;98744.13;;;9.00;78.80
25855;BME280;13680;49.936;11.344;2023-02-12T13:20:03;98752.94;;;8.84;79.20
25855;BME280;13680;49.936;11.344;2023-02-12T13:22:36;98746.00;;;9.00;79.13
25855;BME280;13680;49.936;11.344;2023-02-12T13:27:51;98743.72;;;8.80;80.33
25855;BME280;13680;49.936;11.344;2023-02-12T13:30:19;98745.19;;;8.99;79.24
25855;BME280;13680;49.936;11.344;2023-02-12T13:32:54;98744.69;;;9.03;78.78
25855;BME280;13680;49.936;11.344;2023-02-12T13:35:22;98748.16;;;8.86;79.15
25855;BME280;13680;49.936;11.344;2023-02-12T13:37:52;98745.09;;;8.94;79.16
25855;BME280;13680;49.936;11.344;2023-02-12T13:40:23;98745.56;;;8.91;79.59
25855;BME280;13680;49.936;11.344;2023-02-12T13:42:56;98741.72;;;8.87;79.59
25855;BME280;13680;49.936;11.344;2023-02-12T13:45:39;98744.06;;;8.83;80.27
25855;BME280;13680;49.936;11.344;2023-02-12T13:53:50;98747.75;;;8.65;81.28
25855;BME280;13680;49.936;11.344;2023-02-12T13:56:33;98747.34;;;8.86;80.64
25855;BME280;13680;49.936;11.344;2023-02-12T14:05:01;98742.94;;;8.79;79.91
25855;BME280;13680;49.936;11.344;2023-02-12T14:07:43;98735.59;;;8.75;80.26
25855;BME280;13680;49.936;11.344;2023-02-12T14:10:31;98745.22;;;8.88;79.91
25855;BME280;13680;49.936;11.344;2023-02-12T14:13:21;98735.16;;;8.95;79.53
25855;BME280;13680;49.936;11.344;2023-02-12T14:15:52;98742.03;;;9.03;79.39
25855;BME280;13680;49.936;11.344;2023-02-12T14:23:51;98722.94;;;9.16;79.32
25855;BME280;13680;49.936;11.344;2023-02-12T14:26:22;98727.91;;;9.24;78.95
25855;BME280;13680;49.936;11.344;2023-02-12T14:29:01;98724.00;;;9.15;79.16
25855;BME280;13680;49.936;11.344;2023-02-12T14:31:33;98732.69;;;9.22;79.14
25855;BME280;13680;49.936;11.344;2023-02-12T14:44:46;98724.81;;;9.15;79.28
25855;BME280;13680;49.936;11.344;2023-02-12T14:50:21;98721.91;;;9.34;78.36
25855;BME280;13680;49.936;11.344;2023-02-12T14:53:04;98723.38;;;9.42;78.43
25855;BME280;13680;49.936;11.344;2023-02-12T14:55:32;98727.19;;;9.46;77.91
25855;BME280;13680;49.936;11.344;2023-02-12T14:58:02;98723.84;;;9.39;77.79
25855;BME280;13680;49.936;11.344;2023-02-12T15:00:34;98728.09;;;9.34;77.45
25855;BME280;13680;49.936;11.344;2023-02-12T15:03:12;98721.09;;;9.33;77.86
25855;BME280;13680;49.936;11.344;2023-02-12T15:05:46;98709.28;;;9.34;77.34
25855;BME280;13680;49.936;11.344;2023-02-12T15:08:31;98717.38;;;9.06;78.79
25855;BME280;13680;49.936;11.344;2023-02-12T15:11:26;98718.38;;;9.16;77.92
25855;BME280;13680;49.936;11.344;2023-02-12T15:14:00;98708.44;;;9.17;78.56
25855;BME280;13680;49.936;11.344;2023-02-12T15:19:04;98703.56;;;9.14;77.73
25855;BME280;13680;49.936;11.344;2023-02-12T15:21:32;98715.75;;;9.05;78.31
25855;BME280;13680;49.936;11.344;2023-02-12T15:24:10;98704.44;;;9.03;78.43